Time;durP1;ratioP1;P1;durP2;ratioP2;P2;SDS_P1;SDS_P2;PMS_P1;PMS_P2;Temp;Humidity;BMP_temperature;BMP_pressure;BME280_temperature;BME280_humidity;BME280_pressure;Samples;Min_cycle;Max_cycle;Signal;HPM_P1;HPM_P2
2024/03/14 00:00:22;;;;;;;3.72;2.33;;;20.70;52.30;;;;;;10330326;28;20053;-59
2024/03/14 00:05:26;;;;;;;4.43;2.50;;;20.70;52.40;;;;;;10379845;28;20438;-56
2024/03/14 00:10:29;;;;;;;4.28;2.40;;;20.70;52.10;;;;;;10393464;28;20511;-59
2024/03/14 00:15:30;;;;;;;3.13;2.40;;;20.80;52.00;;;;;;10407901;28;20519;-57
2024/03/14 00:20:42;;;;;;;3.55;2.20;;;20.70;52.20;;;;;;10374730;28;20052;-56
2024/03/14 00:25:46;;;;;;;3.40;2.42;;;20.70;52.10;;;;;;10396304;28;20049;-59
2024/03/14 00:30:49;;;;;;;2.67;1.90;;;20.70;51.90;;;;;;10379289;28;20064;-60
2024/03/14 00:35:51;;;;;;;3.25;2.22;;;20.70;51.70;;;;;;10390771;28;20049;-60
2024/03/14 00:40:53;;;;;;;2.88;2.20;;;20.60;52.00;;;;;;10389129;28;20136;-60
2024/03/14 00:45:55;;;;;;;3.05;2.20;;;20.60;51.70;;;;;;10383905;28;20045;-58
2024/03/14 00:50:56;;;;;;;4.13;2.40;;;20.60;51.60;;;;;;10415502;28;20124;-57
2024/03/14 00:56:01;;;;;;;3.25;2.20;;;20.60;51.50;;;;;;10414600;28;20140;-54
2024/03/14 01:01:02;;;;;;;3.13;1.90;;;20.50;51.80;;;;;;10386046;28;20045;-53
2024/03/14 01:06:05;;;;;;;2.80;2.30;;;20.60;51.50;;;;;;10385792;28;20059;-60
2024/03/14 01:11:07;;;;;;;2.83;2.22;;;20.60;51.70;;;;;;10395246;28;20504;-59
2024/03/14 01:16:09;;;;;;;3.22;2.15;;;20.50;51.50;;;;;;10375506;28;20053;-57
2024/03/14 01:21:11;;;;;;;2.70;2.17;;;20.50;51.40;;;;;;10383345;28;20048;-59
2024/03/14 01:26:13;;;;;;;3.88;2.40;;;20.60;51.30;;;;;;10364959;28;20135;-59
2024/03/14 01:31:15;;;;;;;2.67;2.40;;;20.40;51.50;;;;;;10354837;28;20042;-60
2024/03/14 01:36:17;;;;;;;4.13;2.35;;;20.60;51.20;;;;;;10397427;28;20054;-60
2024/03/14 01:41:19;;;;;;;3.38;2.30;;;20.50;51.30;;;;;;10384056;28;20056;-60
2024/03/14 01:46:21;;;;;;;3.38;2.42;;;20.40;51.40;;;;;;10383947;28;20061;-59
2024/03/14 01:51:23;;;;;;;3.28;2.20;;;20.40;51.30;;;;;;10384173;28;20137;-60
2024/03/14 01:56:25;;;;;;;3.38;2.22;;;20.40;51.50;;;;;;10350931;28;20046;-60
2024/03/14 02:01:27;;;;;;;2.88;2.17;;;20.40;51.40;;;;;;10399814;28;20137;-52
2024/03/14 02:06:31;;;;;;;4.13;2.25;;;20.40;51.20;;;;;;10385163;28;20559;-56
2024/03/14 02:11:33;;;;;;;2.60;2.08;;;20.30;51.30;;;;;;10377978;28;20045;-58
2024/03/14 02:16:35;;;;;;;2.90;2.33;;;20.20;51.50;;;;;;10412196;28;20052;-60
2024/03/14 02:21:37;;;;;;;3.00;1.98;;;20.20;51.30;;;;;;10384655;28;20053;-57
2024/03/14 02:26:40;;;;;;;2.40;2.10;;;20.20;51.50;;;;;;10377091;28;20119;-59
2024/03/14 02:31:42;;;;;;;2.88;2.33;;;20.20;51.40;;;;;;10342058;28;20050;-52
2024/03/14 02:36:44;;;;;;;3.05;2.20;;;20.20;51.30;;;;;;10369157;28;20528;-53
2024/03/14 02:41:46;;;;;;;3.65;2.33;;;20.10;51.40;;;;;;10377290;28;20443;-52
2024/03/14 02:46:50;;;;;;;2.78;1.98;;;20.10;51.30;;;;;;10383483;28;20580;-52
2024/03/14 02:51:52;;;;;;;3.35;2.45;;;20.00;51.40;;;;;;10397077;28;20080;-56
2024/03/14 02:56:54;;;;;;;3.17;2.30;;;20.00;51.40;;;;;;10382687;28;20132;-56
2024/03/14 03:01:56;;;;;;;2.70;2.10;;;20.00;51.60;;;;;;10344967;28;20137;-56
2024/03/14 03:06:58;;;;;;;2.70;2.05;;;19.90;51.50;;;;;;10338076;28;20049;-55
2024/03/14 03:12:00;;;;;;;3.30;2.33;;;20.00;51.40;;;;;;10373149;28;20077;-50
2024/03/14 03:17:02;;;;;;;2.83;2.25;;;20.00;51.30;;;;;;10384277;28;20107;-54
2024/03/14 03:22:05;;;;;;;3.30;2.30;;;20.00;51.50;;;;;;10381965;28;20145;-50
2024/03/14 03:27:13;;;;;;;2.63;2.10;;;19.90;51.50;;;;;;10378223;28;20041;-54
2024/03/14 03:32:16;;;;;;;3.47;2.40;;;19.90;51.50;;;;;;10378470;28;20511;-55
2024/03/14 03:37:18;;;;;;;3.05;2.20;;;19.80;51.80;;;;;;10407949;28;20049;-56
2024/03/14 03:42:20;;;;;;;2.42;2.00;;;19.80;51.70;;;;;;10392432;28;20140;-53
2024/03/14 03:47:21;;;;;;;2.72;2.25;;;19.80;51.50;;;;;;10373334;28;20416;-57
2024/03/14 03:52:23;;;;;;;2.28;1.90;;;19.70;51.50;;;;;;10374703;28;20502;-52
2024/03/14 03:57:25;;;;;;;2.42;2.00;;;19.70;51.60;;;;;;10375505;28;20136;-51
2024/03/14 04:02:27;;;;;;;2.30;2.10;;;19.50;51.90;;;;;;10345323;28;20615;-56
2024/03/14 04:07:33;;;;;;;2.58;2.10;;;19.60;52.10;;;;;;10397813;28;20049;-58
2024/03/14 04:12:35;;;;;;;2.38;2.08;;;20.90;49.20;;;;;;10378025;28;20049;-63
2024/03/14 04:17:37;;;;;;;2.35;1.80;;;21.30;48.80;;;;;;10409790;28;20088;-54
2024/03/14 04:22:40;;;;;;;2.25;1.80;;;21.40;49.00;;;;;;10406046;28;20057;-56
2024/03/14 04:27:42;;;;;;;2.30;1.73;;;21.40;49.20;;;;;;10401129;28;20049;-55
2024/03/14 04:32:45;;;;;;;1.77;1.52;;;21.70;48.80;;;;;;10368426;28;20056;-55
2024/03/14 04:37:49;;;;;;;1.60;1.50;;;21.90;48.80;;;;;;10370250;28;20077;-56
2024/03/14 04:42:52;;;;;;;1.92;1.70;;;22.10;48.60;;;;;;10376334;28;20102;-56
2024/03/14 04:47:54;;;;;;;1.77;1.50;;;22.20;48.40;;;;;;10370359;28;20045;-56
2024/03/14 04:52:56;;;;;;;1.70;1.60;;;22.20;48.50;;;;;;10349092;28;20049;-55
2024/03/14 04:57:59;;;;;;;1.63;1.48;;;22.40;48.40;;;;;;10390734;28;20148;-52
2024/03/14 05:03:01;;;;;;;1.92;1.50;;;22.30;48.60;;;;;;10387351;28;20439;-51
2024/03/14 05:08:05;;;;;;;1.70;1.42;;;22.40;48.50;;;;;;10370754;28;20049;-50
2024/03/14 05:13:08;;;;;;;1.80;1.70;;;22.40;48.30;;;;;;10373677;28;20050;-52
2024/03/14 05:18:10;;;;;;;1.88;1.50;;;22.60;48.20;;;;;;10380480;28;20050;-50
2024/03/14 05:23:12;;;;;;;2.00;1.80;;;22.60;48.60;;;;;;10388403;28;20133;-54
2024/03/14 05:28:16;;;;;;;3.53;1.80;;;22.70;48.50;;;;;;10391153;28;20517;-52
2024/03/14 05:33:18;;;;;;;2.00;1.67;;;22.50;49.00;;;;;;10403955;28;20045;-53
2024/03/14 05:38:19;;;;;;;3.15;1.70;;;22.50;49.40;;;;;;10400713;28;20059;-58
2024/03/14 05:43:21;;;;;;;1.70;1.40;;;22.60;49.50;;;;;;10378053;28;20133;-60
2024/03/14 05:48:23;;;;;;;2.15;1.48;;;22.90;48.80;;;;;;10394726;28;20099;-57
2024/03/14 05:53:28;;;;;;;4.55;1.60;;;23.20;48.40;;;;;;10384954;28;20132;-53
2024/03/14 05:58:31;;;;;;;2.40;1.67;;;23.20;48.40;;;;;;10384037;28;20072;-56
2024/03/14 06:03:33;;;;;;;2.15;1.50;;;23.20;48.40;;;;;;10381250;28;20072;-56
2024/03/14 06:08:35;;;;;;;3.25;1.70;;;22.60;49.40;;;;;;10384578;28;20055;-54
2024/03/14 06:13:40;;;;;;;24.83;5.28;;;22.50;50.00;;;;;;10385927;28;20057;-53
2024/03/14 06:18:43;;;;;;;19.55;5.88;;;22.40;54.00;;;;;;10382543;28;20053;-58
2024/03/14 06:23:45;;;;;;;27.95;5.75;;;22.50;54.10;;;;;;10406279;28;20075;-53
2024/03/14 06:28:47;;;;;;;11.45;4.63;;;22.50;54.10;;;;;;10388553;28;20151;-55
2024/03/14 06:33:50;;;;;;;13.90;4.88;;;22.60;54.10;;;;;;10402508;28;20140;-58
2024/03/14 06:38:55;;;;;;;12.63;4.85;;;22.50;55.30;;;;;;10385847;28;20053;-60
2024/03/14 06:43:57;;;;;;;17.13;4.88;;;22.60;55.00;;;;;;10386564;28;20049;-59
2024/03/14 06:48:59;;;;;;;17.55;4.50;;;22.50;55.90;;;;;;10378320;28;20128;-58
2024/03/14 06:54:04;;;;;;;22.05;4.30;;;22.60;56.40;;;;;;10396069;28;20061;-58
2024/03/14 06:59:05;;;;;;;12.20;4.32;;;22.60;56.40;;;;;;10366107;28;20422;-56
2024/03/14 07:04:08;;;;;;;17.95;4.10;;;22.50;56.70;;;;;;10345377;28;20062;-58
2024/03/14 07:09:14;;;;;;;13.52;3.80;;;22.40;56.90;;;;;;10356437;28;20050;-54
2024/03/14 07:14:16;;;;;;;11.35;3.42;;;22.50;56.40;;;;;;10357283;28;20081;-54
2024/03/14 07:19:21;;;;;;;10.73;4.47;;;22.60;56.00;;;;;;10397256;28;20052;-51
2024/03/14 07:24:23;;;;;;;13.30;4.47;;;22.50;56.30;;;;;;10390308;28;20485;-53
2024/03/14 07:29:25;;;;;;;16.67;4.00;;;22.50;55.60;;;;;;10375780;28;20041;-55
2024/03/14 07:34:27;;;;;;;10.25;3.22;;;22.50;56.00;;;;;;10383457;28;20041;-52
2024/03/14 07:39:29;;;;;;;10.38;3.22;;;22.50;56.70;;;;;;10397351;28;20061;-54
2024/03/14 07:44:32;;;;;;;13.65;3.85;;;22.60;56.20;;;;;;10382139;28;20041;-59
2024/03/14 07:49:35;;;;;;;10.85;3.60;;;22.60;56.20;;;;;;10384332;28;20121;-52
2024/03/14 07:54:39;;;;;;;11.07;3.00;;;22.50;56.30;;;;;;10382553;28;20081;-52
2024/03/14 07:59:41;;;;;;;7.93;3.08;;;22.50;56.30;;;;;;10383114;28;20128;-50
2024/03/14 08:04:44;;;;;;;9.13;3.00;;;22.60;56.30;;;;;;10375728;28;20045;-50
2024/03/14 08:09:47;;;;;;;6.53;2.53;;;22.70;56.10;;;;;;10392230;28;20087;-52
2024/03/14 08:14:49;;;;;;;9.23;2.63;;;22.70;56.50;;;;;;10396132;28;20542;-51
2024/03/14 08:19:56;;;;;;;8.77;3.10;;;22.70;56.20;;;;;;10376489;28;20503;-52
2024/03/14 08:24:57;;;;;;;6.60;2.67;;;22.80;56.20;;;;;;10412651;28;20050;-51
2024/03/14 08:30:00;;;;;;;8.25;2.88;;;22.80;56.30;;;;;;10381964;28;20451;-54
2024/03/14 08:35:02;;;;;;;5.45;2.22;;;22.90;56.10;;;;;;10378010;28;20045;-52
2024/03/14 08:40:05;;;;;;;5.07;2.35;;;22.90;56.10;;;;;;10378702;28;20042;-52
2024/03/14 08:45:09;;;;;;;8.32;2.88;;;22.90;55.90;;;;;;10389646;28;20491;-51
2024/03/14 08:50:13;;;;;;;8.73;2.30;;;23.00;55.30;;;;;;10380878;28;20175;-55
2024/03/14 08:55:24;;;;;;;5.22;2.28;;;23.00;55.40;;;;;;10360783;28;20042;-50
2024/03/14 09:00:25;;;;;;;6.22;2.33;;;22.90;55.50;;;;;;10375723;28;20385;-52
2024/03/14 09:05:27;;;;;;;6.80;2.60;;;22.80;55.20;;;;;;10387427;28;20045;-54
2024/03/14 09:10:33;;;;;;;12.32;2.10;;;22.90;55.10;;;;;;10382403;28;20088;-53
2024/03/14 09:15:35;;;;;;;5.40;2.20;;;22.90;54.90;;;;;;10383693;28;20105;-52
2024/03/14 09:20:38;;;;;;;4.05;2.40;;;22.80;54.80;;;;;;10368526;28;20564;-51
2024/03/14 09:25:39;;;;;;;4.63;2.20;;;22.80;54.90;;;;;;10365002;28;20050;-55
2024/03/14 09:30:42;;;;;;;6.20;2.40;;;22.70;55.30;;;;;;10345026;28;20058;-52
2024/03/14 09:35:46;;;;;;;5.13;2.35;;;22.70;55.10;;;;;;10388549;28;20041;-56
2024/03/14 09:40:48;;;;;;;3.78;2.50;;;22.80;55.40;;;;;;10397873;28;20064;-56
2024/03/14 09:45:50;;;;;;;4.40;2.45;;;22.80;55.40;;;;;;10417698;28;20466;-53
2024/03/14 09:50:51;;;;;;;4.15;2.70;;;22.70;55.70;;;;;;10380451;28;20132;-56
2024/03/14 09:55:54;;;;;;;4.53;2.53;;;22.90;54.80;;;;;;10414732;28;20427;-54
2024/03/14 10:00:55;;;;;;;4.03;2.28;;;23.10;54.00;;;;;;10401960;28;20037;-55
2024/03/14 10:05:57;;;;;;;3.63;2.35;;;22.90;53.80;;;;;;10386802;28;20051;-53
2024/03/14 10:10:59;;;;;;;3.38;2.30;;;23.20;53.20;;;;;;10382144;28;20073;-55
2024/03/14 10:16:01;;;;;;;3.65;1.90;;;23.20;53.00;;;;;;10385582;28;20128;-56
2024/03/14 10:21:05;;;;;;;4.45;2.33;;;23.20;52.80;;;;;;10403540;28;20128;-56
2024/03/14 10:26:09;;;;;;;3.45;2.17;;;22.90;53.40;;;;;;10384900;28;20128;-51
2024/03/14 10:31:11;;;;;;;4.70;2.05;;;22.80;53.60;;;;;;10391905;28;20095;-51
2024/03/14 10:36:13;;;;;;;2.85;1.70;;;22.80;54.10;;;;;;10399376;28;20116;-56
2024/03/14 10:41:14;;;;;;;3.88;1.92;;;22.80;54.00;;;;;;10382310;28;20562;-56
2024/03/14 10:46:17;;;;;;;5.18;1.70;;;22.80;53.80;;;;;;10390049;28;20037;-50
2024/03/14 10:51:19;;;;;;;2.85;1.70;;;23.00;53.40;;;;;;10352278;28;20054;-55
2024/03/14 10:56:22;;;;;;;4.72;1.63;;;23.00;53.20;;;;;;10376628;28;20129;-59
2024/03/14 11:01:24;;;;;;;3.25;1.50;;;23.00;53.10;;;;;;10398007;28;20132;-49
2024/03/14 11:06:26;;;;;;;2.17;1.50;;;23.10;52.60;;;;;;10384918;28;20037;-52
2024/03/14 11:11:28;;;;;;;5.20;1.67;;;23.20;52.20;;;;;;10414978;28;20033;-55
2024/03/14 11:16:30;;;;;;;3.47;1.60;;;23.30;51.80;;;;;;10382715;28;20576;-55
2024/03/14 11:21:34;;;;;;;4.05;1.35;;;23.30;52.00;;;;;;10413515;28;20068;-60
2024/03/14 11:26:36;;;;;;;3.58;1.30;;;23.30;52.00;;;;;;10382216;28;20051;-58
2024/03/14 11:31:39;;;;;;;2.88;1.35;;;23.20;52.00;;;;;;10383624;28;20042;-57
2024/03/14 11:36:41;;;;;;;4.10;2.20;;;23.30;51.40;;;;;;10379841;28;20404;-58
2024/03/14 11:41:43;;;;;;;2.78;1.80;;;23.20;48.10;;;;;;10383840;28;20460;-57
2024/03/14 11:46:48;;;;;;;3.35;1.67;;;23.50;49.10;;;;;;10376428;28;20049;-56
2024/03/14 11:51:51;;;;;;;2.50;1.38;;;23.50;49.30;;;;;;10392872;28;20186;-60
2024/03/14 11:56:53;;;;;;;5.32;2.38;;;23.40;49.90;;;;;;10380521;28;20144;-56
2024/03/14 12:01:55;;;;;;;3.72;1.67;;;23.20;48.00;;;;;;10393824;28;20456;-58
2024/03/14 12:06:58;;;;;;;2.88;1.48;;;23.40;48.00;;;;;;10361575;28;20049;-57
2024/03/14 12:12:00;;;;;;;3.25;1.45;;;23.40;48.40;;;;;;10373464;28;20124;-60
2024/03/14 12:17:03;;;;;;;2.58;1.60;;;23.30;49.20;;;;;;10405727;28;20168;-58
2024/03/14 12:22:05;;;;;;;2.97;1.40;;;23.30;49.60;;;;;;10408015;28;20042;-59
2024/03/14 12:27:08;;;;;;;2.08;1.05;;;23.40;49.30;;;;;;10377103;28;20049;-59
2024/03/14 12:32:10;;;;;;;1.92;1.30;;;23.40;49.60;;;;;;10381102;28;20092;-58
2024/03/14 12:37:13;;;;;;;2.03;1.30;;;23.50;49.30;;;;;;10410831;28;20129;-60
2024/03/14 12:42:15;;;;;;;1.30;1.20;;;23.60;49.80;;;;;;10407092;28;20046;-59
2024/03/14 12:47:17;;;;;;;4.55;1.30;;;23.50;49.20;;;;;;10338775;28;20046;-60
2024/03/14 12:52:19;;;;;;;6.28;1.20;;;23.50;49.70;;;;;;10389619;28;20395;-58
2024/03/14 12:57:22;;;;;;;1.88;1.08;;;23.50;49.70;;;;;;10390234;28;20077;-58
2024/03/14 13:02:24;;;;;;;1.90;1.10;;;23.60;49.80;;;;;;10389921;28;20038;-59
2024/03/14 13:07:26;;;;;;;1.90;1.20;;;23.40;50.40;;;;;;10387340;28;20103;-58
2024/03/14 13:12:28;;;;;;;3.35;1.10;;;23.50;50.30;;;;;;10380281;28;20579;-57
2024/03/14 13:17:30;;;;;;;2.17;1.20;;;23.50;50.20;;;;;;10367971;28;20056;-56
2024/03/14 13:22:32;;;;;;;3.10;1.30;;;23.50;50.00;;;;;;10383583;28;20049;-57
2024/03/14 13:27:34;;;;;;;1.27;1.13;;;23.50;50.00;;;;;;10364590;28;20080;-56
2024/03/14 13:32:37;;;;;;;2.83;1.60;;;23.30;50.00;;;;;;10392079;28;20139;-65
2024/03/14 13:37:38;;;;;;;3.47;1.65;;;23.30;48.50;;;;;;10365800;28;20058;-58
2024/03/14 13:42:41;;;;;;;1.63;1.50;;;23.30;47.50;;;;;;10399398;28;20081;-59
2024/03/14 13:47:45;;;;;;;2.42;1.40;;;23.60;46.70;;;;;;10385209;28;20049;-59
2024/03/14 13:52:48;;;;;;;2.78;1.40;;;23.70;46.10;;;;;;10384749;28;20061;-50
2024/03/14 13:57:50;;;;;;;3.22;1.70;;;23.80;45.60;;;;;;10382231;28;20133;-53
2024/03/14 14:02:56;;;;;;;2.83;1.55;;;23.50;46.20;;;;;;10383020;28;20049;-52
2024/03/14 14:08:00;;;;;;;6.20;1.55;;;23.80;45.30;;;;;;10388539;28;20447;-54
2024/03/14 14:13:01;;;;;;;5.90;1.73;;;23.80;46.00;;;;;;10395082;28;20129;-55
2024/03/14 14:18:05;;;;;;;5.05;1.83;;;24.00;46.30;;;;;;10386488;28;20124;-52
2024/03/14 14:23:07;;;;;;;4.57;1.98;;;23.90;45.80;;;;;;10398667;28;20389;-52
2024/03/14 14:28:09;;;;;;;3.65;1.90;;;23.90;46.40;;;;;;10384763;28;20124;-50
2024/03/14 14:33:11;;;;;;;10.65;1.75;;;23.90;46.00;;;;;;10389044;28;20130;-58
2024/03/14 14:38:13;;;;;;;3.53;1.88;;;23.90;45.70;;;;;;10398207;28;20091;-53
2024/03/14 14:43:16;;;;;;;3.28;1.90;;;23.80;45.00;;;;;;10415898;28;20132;-51
2024/03/14 14:48:18;;;;;;;4.20;1.80;;;23.60;44.20;;;;;;10384494;28;20073;-55
2024/03/14 14:53:21;;;;;;;3.13;1.40;;;23.80;43.80;;;;;;10380543;28;20049;-55
2024/03/14 14:58:22;;;;;;;5.28;1.75;;;24.30;43.10;;;;;;10377325;28;20045;-52
2024/03/14 15:03:24;;;;;;;2.65;1.70;;;24.10;43.50;;;;;;10377229;28;20140;-56
2024/03/14 15:08:27;;;;;;;2.53;1.30;;;24.10;43.20;;;;;;10382201;28;20038;-54
2024/03/14 15:13:31;;;;;;;2.05;1.60;;;24.30;43.20;;;;;;10384746;28;20053;-53
2024/03/14 15:18:33;;;;;;;2.63;1.80;;;24.70;41.80;;;;;;10377055;28;20426;-55
2024/03/14 15:23:37;;;;;;;2.95;1.95;;;24.90;40.90;;;;;;10378756;28;20141;-58
2024/03/14 15:28:40;;;;;;;2.35;2.03;;;24.90;40.30;;;;;;10380270;28;20172;-58
2024/03/14 15:33:43;;;;;;;3.97;2.20;;;24.90;40.30;;;;;;10376166;28;20044;-59
2024/03/14 15:38:45;;;;;;;4.18;2.30;;;24.90;40.00;;;;;;10397573;28;20041;-55
2024/03/14 15:43:47;;;;;;;2.50;2.30;;;24.90;39.30;;;;;;10377077;28;20133;-58
2024/03/14 15:48:49;;;;;;;4.93;2.20;;;25.00;38.90;;;;;;10376657;28;20041;-59
2024/03/14 15:53:51;;;;;;;3.83;2.47;;;24.70;39.00;;;;;;10374864;28;20143;-56
2024/03/14 15:58:53;;;;;;;4.28;2.40;;;24.60;39.60;;;;;;10375366;28;20136;-48
2024/03/14 16:03:55;;;;;;;3.28;2.35;;;24.40;39.50;;;;;;10399560;28;20045;-49
2024/03/14 16:08:58;;;;;;;3.83;1.77;;;24.10;40.00;;;;;;10379571;28;20430;-50
2024/03/14 16:14:00;;;;;;;3.17;1.60;;;24.10;41.30;;;;;;10393054;28;20605;-52
2024/03/14 16:19:04;;;;;;;2.20;1.30;;;24.30;41.90;;;;;;10378728;28;20041;-48
2024/03/14 16:24:06;;;;;;;3.67;1.13;;;24.00;44.00;;;;;;10378507;28;20046;-52
2024/03/14 16:29:09;;;;;;;2.70;0.90;;;24.00;44.90;;;;;;10377457;28;20140;-48
2024/03/14 16:34:12;;;;;;;2.60;1.00;;;24.00;46.10;;;;;;10380084;28;20415;-50
2024/03/14 16:39:18;;;;;;;1.15;0.80;;;24.00;46.50;;;;;;10373530;28;20066;-53
2024/03/14 16:44:20;;;;;;;2.60;1.50;;;24.00;46.70;;;;;;10391956;28;20115;-54
2024/03/14 16:49:22;;;;;;;3.50;2.83;;;23.80;46.20;;;;;;10381384;28;20124;-56
2024/03/14 16:54:29;;;;;;;5.03;1.67;;;23.60;44.40;;;;;;10389396;28;20133;-52
2024/03/14 16:59:31;;;;;;;5.78;1.60;;;24.00;45.50;;;;;;10371360;28;20045;-52
2024/03/14 17:04:33;;;;;;;6.65;1.33;;;24.20;45.60;;;;;;10372003;28;20053;-54
2024/03/14 17:09:35;;;;;;;6.53;1.42;;;24.30;46.10;;;;;;10377892;28;20496;-55
2024/03/14 17:14:37;;;;;;;4.32;1.23;;;24.30;46.30;;;;;;10375181;28;20488;-52
2024/03/14 17:19:39;;;;;;;15.88;1.40;;;24.40;46.40;;;;;;10383302;28;20133;-50
2024/03/14 17:24:40;;;;;;;12.77;1.17;;;24.40;47.00;;;;;;10385623;28;20056;-48
2024/03/14 17:29:42;;;;;;;4.43;1.20;;;24.50;47.10;;;;;;10383065;28;20124;-51
2024/03/14 17:34:44;;;;;;;10.10;1.35;;;24.10;47.40;;;;;;10403016;28;20045;-58
2024/03/14 17:39:46;;;;;;;5.75;1.17;;;23.90;47.60;;;;;;10385975;28;20144;-53
2024/03/14 17:44:48;;;;;;;4.10;1.15;;;24.10;47.70;;;;;;10386895;28;20088;-49
2024/03/14 17:49:50;;;;;;;5.70;0.80;;;24.00;48.50;;;;;;10384636;28;20133;-58
2024/03/14 17:54:52;;;;;;;5.10;1.20;;;23.90;48.80;;;;;;10374273;28;20053;-54
2024/03/14 17:59:54;;;;;;;8.35;1.08;;;24.30;49.10;;;;;;10379846;28;20051;-58
2024/03/14 18:04:56;;;;;;;9.18;1.10;;;24.30;49.50;;;;;;10378374;28;20041;-57
2024/03/14 18:09:57;;;;;;;7.05;1.00;;;24.30;50.30;;;;;;10380680;28;20750;-56
2024/03/14 18:15:08;;;;;;;7.65;1.25;;;24.50;50.10;;;;;;10340479;28;20070;-55
2024/03/14 18:20:12;;;;;;;8.90;1.30;;;24.50;50.40;;;;;;10359449;28;20033;-53
2024/03/14 18:25:16;;;;;;;21.77;1.25;;;24.40;50.90;;;;;;10399499;28;20052;-55
2024/03/14 18:30:18;;;;;;;16.10;1.48;;;24.40;51.40;;;;;;10381138;28;20056;-52
2024/03/14 18:35:21;;;;;;;6.30;1.10;;;24.50;51.60;;;;;;10383764;28;20528;-51
2024/03/14 18:40:25;;;;;;;6.13;1.00;;;24.40;51.90;;;;;;10382889;28;20045;-54
2024/03/14 18:45:27;;;;;;;4.22;0.90;;;24.40;51.90;;;;;;10381542;28;20053;-55
2024/03/14 18:50:29;;;;;;;5.60;0.98;;;24.40;51.80;;;;;;10380780;28;20099;-50
2024/03/14 18:55:31;;;;;;;10.95;0.88;;;24.50;51.50;;;;;;10393900;28;20405;-51
2024/03/14 19:00:33;;;;;;;3.97;2.25;;;24.50;51.40;;;;;;10380820;28;20478;-51
2024/03/14 19:05:35;;;;;;;4.13;3.60;;;24.20;48.20;;;;;;10396716;28;20331;-51
2024/03/14 19:10:38;;;;;;;6.32;4.15;;;23.60;44.50;;;;;;10393268;28;20057;-51
2024/03/14 19:15:40;;;;;;;6.95;4.22;;;23.20;44.30;;;;;;10378936;28;20050;-52
2024/03/14 19:20:42;;;;;;;4.15;2.53;;;23.20;44.70;;;;;;10377115;28;20081;-52
2024/03/14 19:25:44;;;;;;;4.00;2.35;;;23.20;46.40;;;;;;10413589;28;20303;-50
2024/03/14 19:30:46;;;;;;;10.27;2.00;;;23.10;47.70;;;;;;10414408;28;20496;-52
2024/03/14 19:35:49;;;;;;;3.05;1.60;;;23.10;48.10;;;;;;10381948;28;20068;-55
2024/03/14 19:40:51;;;;;;;2.60;1.60;;;23.20;48.10;;;;;;10401147;28;20045;-48
2024/03/14 19:45:55;;;;;;;3.40;1.60;;;23.10;48.80;;;;;;10380230;28;20045;-50
2024/03/14 19:50:57;;;;;;;3.25;1.50;;;23.10;49.30;;;;;;10393392;28;20137;-47
2024/03/14 19:56:01;;;;;;;3.45;1.40;;;22.90;49.80;;;;;;10378627;28;20132;-48
2024/03/14 20:01:04;;;;;;;6.90;1.60;;;22.90;49.80;;;;;;10369472;28;20069;-50
2024/03/14 20:06:06;;;;;;;2.03;1.23;;;22.90;49.80;;;;;;10356580;28;20092;-49
2024/03/14 20:11:11;;;;;;;2.50;1.15;;;22.90;49.80;;;;;;10352438;28;20065;-50
2024/03/14 20:16:17;;;;;;;3.15;1.52;;;22.90;50.00;;;;;;10366683;28;20081;-51
2024/03/14 20:21:19;;;;;;;2.60;1.40;;;22.90;50.00;;;;;;10351494;28;20048;-50
2024/03/14 20:26:21;;;;;;;1.90;1.13;;;22.90;50.20;;;;;;10346152;28;20116;-48
2024/03/14 20:31:23;;;;;;;3.65;1.10;;;22.80;51.00;;;;;;10377542;28;20048;-47
2024/03/14 20:36:24;;;;;;;2.47;1.10;;;22.70;51.20;;;;;;10377425;28;20148;-48
2024/03/14 20:41:27;;;;;;;2.30;1.00;;;22.70;51.40;;;;;;10412490;28;20140;-48
2024/03/14 20:46:29;;;;;;;2.70;1.00;;;22.70;51.40;;;;;;10378328;28;20521;-48
2024/03/14 20:51:31;;;;;;;4.45;1.10;;;22.60;51.60;;;;;;10379165;28;20069;-48
2024/03/14 20:56:33;;;;;;;2.20;0.82;;;22.80;51.40;;;;;;10387091;28;20037;-48
2024/03/14 21:01:35;;;;;;;0.95;0.80;;;22.90;51.20;;;;;;10404241;28;20553;-52
2024/03/14 21:06:37;;;;;;;2.70;1.00;;;22.90;51.10;;;;;;10390355;28;20057;-52
2024/03/14 21:11:39;;;;;;;1.52;0.90;;;22.80;51.30;;;;;;10389988;28;20103;-49
2024/03/14 21:16:41;;;;;;;1.30;1.00;;;22.90;51.30;;;;;;10393194;28;20499;-50
2024/03/14 21:21:44;;;;;;;1.73;1.00;;;22.80;51.40;;;;;;10408243;28;20045;-51
2024/03/14 21:26:46;;;;;;;1.42;0.82;;;22.80;51.30;;;;;;10364598;28;20049;-53
2024/03/14 21:31:49;;;;;;;1.23;0.90;;;22.80;51.30;;;;;;10351909;28;20042;-52
2024/03/14 21:36:51;;;;;;;1.27;0.88;;;22.70;51.40;;;;;;10392778;28;20124;-51
2024/03/14 21:41:52;;;;;;;1.05;0.80;;;22.70;51.40;;;;;;10384380;28;20041;-54
2024/03/14 21:46:54;;;;;;;0.70;0.70;;;22.70;51.40;;;;;;10396467;28;20050;-52
2024/03/14 21:51:56;;;;;;;1.42;0.90;;;22.60;51.40;;;;;;10379078;28;20043;-49
2024/03/14 21:56:58;;;;;;;1.05;0.80;;;22.60;51.50;;;;;;10384722;28;20132;-52
2024/03/14 22:02:00;;;;;;;1.27;0.80;;;22.70;51.40;;;;;;10393251;28;20046;-55
2024/03/14 22:07:02;;;;;;;1.48;0.80;;;22.60;51.30;;;;;;10413537;28;20049;-50
2024/03/14 22:12:05;;;;;;;1.80;0.98;;;22.70;50.90;;;;;;10359442;28;20048;-53
2024/03/14 22:17:08;;;;;;;0.93;0.82;;;22.70;50.70;;;;;;10353666;28;20054;-51
2024/03/14 22:22:09;;;;;;;1.48;0.93;;;22.70;50.80;;;;;;10380239;28;20546;-52
2024/03/14 22:27:12;;;;;;;1.00;0.75;;;22.80;50.40;;;;;;10385825;28;20130;-49
2024/03/14 22:32:14;;;;;;;0.85;0.80;;;22.80;50.40;;;;;;10377840;28;20056;-51
2024/03/14 22:37:16;;;;;;;0.88;0.85;;;22.80;50.40;;;;;;10352996;28;20132;-52
2024/03/14 22:42:18;;;;;;;1.25;0.95;;;23.00;50.10;;;;;;10377703;28;20068;-51
2024/03/14 22:47:19;;;;;;;0.70;0.70;;;22.80;50.30;;;;;;10403921;28;20136;-51
2024/03/14 22:52:21;;;;;;;0.68;0.68;;;22.80;50.10;;;;;;10383395;28;20065;-51
2024/03/14 22:57:23;;;;;;;0.70;0.70;;;22.90;50.10;;;;;;10385946;28;20160;-50
2024/03/14 23:02:27;;;;;;;0.80;0.80;;;22.70;50.50;;;;;;10380910;28;20136;-53
2024/03/14 23:07:29;;;;;;;1.05;0.90;;;22.70;50.50;;;;;;10379775;28;20045;-49
2024/03/14 23:12:31;;;;;;;0.77;0.75;;;22.70;50.50;;;;;;10377727;28;20136;-54
2024/03/14 23:17:33;;;;;;;0.68;0.68;;;22.60;50.70;;;;;;10384710;28;20132;-51
2024/03/14 23:22:35;;;;;;;1.00;0.80;;;22.70;50.30;;;;;;10383145;28;20049;-52
2024/03/14 23:27:37;;;;;;;0.95;0.80;;;22.60;50.50;;;;;;10379869;28;20141;-53
2024/03/14 23:32:39;;;;;;;1.00;0.90;;;22.70;50.20;;;;;;10381129;28;20053;-50
2024/03/14 23:37:41;;;;;;;1.10;0.73;;;22.60;50.40;;;;;;10381613;28;20137;-52
2024/03/14 23:42:44;;;;;;;0.90;0.70;;;22.60;50.40;;;;;;10380454;28;20116;-55
2024/03/14 23:47:46;;;;;;;1.00;0.73;;;22.50;50.60;;;;;;10375274;28;20153;-49
2024/03/14 23:52:48;;;;;;;1.05;0.88;;;22.50;50.40;;;;;;10378588;28;20052;-50
2024/03/14 23:57:49;;;;;;;0.80;0.80;;;22.60;50.40;;;;;;10380748;28;20045;-49
